Los Alamitos, California
Current Conditions -  °F | °C
As of 11:58 AM on Saturday 25 Oct 2014 (Local Time) from KSLI Reporting Station
Few Clouds Few Clouds  
Wind Chill: 78°   Ceiling: Unl
Heat Index: 79°   Visibility: 10mi
Dew Point: 59°   Wind: 2mph
Humidity: 52%   Direction: 300°WNW
Pressure: 30.04"   Gusts: NA
Location:  33.8°N, 118.07°W
Report Text: KSLI 251858Z 30002KT 10SM FEW200 26/15 A3004 RMK AO2A SLP175 T02550151
Loading
Personal Weather Stations






























Interactive Weather Map
Tropical Storm Tracking
New forecast layout! Learn more

10-Day Weather Forecast

Advertisements
Track Severe Weather on mobile